Address 0x42d73a757e63a18a70c8a86564e405deca81967c 4

My Name Tag:
Not Available

Txn Hash Method
Block
From
To
Value [Txn Fee]
0x3226d75c1537cbbfcac1f94ec665f6cf729b38a1b6c1c4f57041ea48417c6358Add Liquidity117636372021-08-24 17:15:4423 days 45 mins ago0x42d73a757e63a18a70c8a86564e405deca81967cOUT 0x9ac64cc6e4415144c455bd8e4837fea55603e5c30 BNB0.0034179
0x5b2f69b22047c9406695ff8682c57723bedf78417b14382ea55cc4d055ed2e54Remove Liquidity...117635982021-08-24 17:13:4723 days 47 mins ago0x42d73a757e63a18a70c8a86564e405deca81967cOUT 0x9ac64cc6e4415144c455bd8e4837fea55603e5c30 BNB0.00223196
0xfbb93196bc9d2fb76a7b1dd766315fcf12734a864521dcdaf2493ce34e09c87cAdd Liquidity117409862021-08-23 22:22:2323 days 19 hrs ago0x42d73a757e63a18a70c8a86564e405deca81967cOUT 0x9ac64cc6e4415144c455bd8e4837fea55603e5c30 BNB0.06917708
0x0ac5ff25c471982b40c8747eb982bb759eabc5de8be0c039648010a645cbac07Approve117409772021-08-23 22:21:5623 days 19 hrs ago0x42d73a757e63a18a70c8a86564e405deca81967cOUT 0x475264777cc00adf408d1ed3b155b63648f711190 BNB0.00044407
0x52ebd34088bbecb85ea558ebc6dd70b5da5c6728b6696d631b5ce797ed951f5cMint117409462021-08-23 22:20:2323 days 19 hrs ago0x42d73a757e63a18a70c8a86564e405deca81967cOUT 0x475264777cc00adf408d1ed3b155b63648f711190 BNB0.00067713
0x06dbc99690be06bea617742ca16aa440e37476ea324fe5993b6e8bd24924070d0x60806040117409352021-08-23 22:19:5023 days 19 hrs ago0x42d73a757e63a18a70c8a86564e405deca81967cOUT Contract Creation0 BNB0.0161308
0x5d3f0561660ab3ae6672f9390edd0734e59c411d05c9f7a55a3dff6829fbb5c2Transfer114498892021-08-13 17:39:5334 days 21 mins ago0xaa25aa7a19f9c426e07dee59b12f944f4d9f1dd3 IN 0x42d73a757e63a18a70c8a86564e405deca81967c1 BNB0.000378
0xf237d292abe6a965ab3f7cd72538432df2d632e05573fc8439d8d3443c737d9eAdd114187382021-08-12 15:42:0235 days 2 hrs ago0x42d73a757e63a18a70c8a86564e405deca81967cOUT0x96306fa6c17a5edfa80c679051e3ca980a2e9cc90 BNB0.00021712
0xe9dc01d6562a4d7d0205cabfbdb75559a819657f807b817c9eafb40816de1611Transfer114186642021-08-12 15:38:2035 days 2 hrs ago0xaa25aa7a19f9c426e07dee59b12f944f4d9f1dd3 IN 0x42d73a757e63a18a70c8a86564e405deca81967c1 BNB0.000378
0x06da1bd5ea88585a34fd6b2610b84c10a5191a0e7001251e1be2e5135fa36bb7Swap Exact ETH F...113742542021-08-11 2:08:5636 days 15 hrs ago0x42d73a757e63a18a70c8a86564e405deca81967cOUT 0x9ac64cc6e4415144c455bd8e4837fea55603e5c30.5 BNB0.00206739
0x1dd2bc05cb3acf6113bbcdbcc613dc85c7da5cdc88e22cc6e1dda0280780c0a7Transfer113725232021-08-11 0:42:2336 days 17 hrs ago0xaa25aa7a19f9c426e07dee59b12f944f4d9f1dd3 IN 0x42d73a757e63a18a70c8a86564e405deca81967c1 BNB0.000378
0xee8175cc422192f2ca07f47e37f33e8fed12b6fb7c8173816382aeb3ee76920dWithdraw110187242021-07-29 16:51:3449 days 1 hr ago0x42d73a757e63a18a70c8a86564e405deca81967cOUT 0xab80da5087b6b0cc77a6003e8a75e43e02962e9e0 BNB0.00102756
0x20dafd7f9e1c89997fef8b614b55aa00f0475c92a01a6ed191ad81924f2bccf1Deposit110187052021-07-29 16:50:3749 days 1 hr ago0x42d73a757e63a18a70c8a86564e405deca81967cOUT 0xab80da5087b6b0cc77a6003e8a75e43e02962e9e0 BNB0.00108569
0xc489f9c7194a43495ea131932fee7949387dce27e35460c892942711b32711b8Add Liquidity ET...110185642021-07-29 16:43:3449 days 1 hr ago0x42d73a757e63a18a70c8a86564e405deca81967cOUT 0x9ac64cc6e4415144c455bd8e4837fea55603e5c30.05 BNB0.00188387
0x83bdf469c3c66769f526c4dd02470ed01b9457080ac930548a092f2c557d746bSwap Exact ETH F...110182182021-07-29 16:26:1649 days 1 hr ago0x42d73a757e63a18a70c8a86564e405deca81967cOUT 0x9ac64cc6e4415144c455bd8e4837fea55603e5c30.1 BNB0.00135269
0x695a7a5d57753284700fc4bf79a86df73241826fb0077b4a80b74f179ca70e5fSwap Exact ETH F...110182122021-07-29 16:25:5849 days 1 hr ago0x42d73a757e63a18a70c8a86564e405deca81967cOUT 0x9ac64cc6e4415144c455bd8e4837fea55603e5c30.1 BNB0.00031663
0xdb9c05c0c09922b66b9f81b65cfac0a3651dcc1c59956acd862af08fb31de020Add Liquidity ET...110167152021-07-29 15:11:0749 days 2 hrs ago0x42d73a757e63a18a70c8a86564e405deca81967cOUT 0x9ac64cc6e4415144c455bd8e4837fea55603e5c30.099815976578378 BNB0.00361224
0xe2d3608e64d0612fcd24a77dfb0796a911d92ae34e6b909100210509aa95e68cSwap Exact ETH F...110166802021-07-29 15:09:2249 days 2 hrs ago0x42d73a757e63a18a70c8a86564e405deca81967cOUT 0x9ac64cc6e4415144c455bd8e4837fea55603e5c30.1 BNB0.00135269
0x991292c044def978c5f2d3c5920ff8224766f599329f2e3fc6496d03a2f827c3Deposit110165162021-07-29 15:01:1049 days 3 hrs ago0x42d73a757e63a18a70c8a86564e405deca81967cOUT 0xab80da5087b6b0cc77a6003e8a75e43e02962e9e0 BNB0.00123569
0xaf5bc06e420afefefaf8f9a2b8f2c210ea73af8bc159a7c1bc8165898113253aDeposit110164922021-07-29 14:59:5849 days 3 hrs ago0x42d73a757e63a18a70c8a86564e405deca81967cOUT 0xab80da5087b6b0cc77a6003e8a75e43e02962e9e0 BNB0.00128853
0xb9046aea2a23d82836c39e1e21b3422090a2376d61e952161b0e7f72335d9c0aAdd Liquidity ET...110164812021-07-29 14:59:2549 days 3 hrs ago0x42d73a757e63a18a70c8a86564e405deca81967cOUT 0x9ac64cc6e4415144c455bd8e4837fea55603e5c30.249776229370466 BNB0.00361248
0x71a9410415a219f915e29bef8069fd4c03ff0893b8d89ea2cafac26050449b6bApprove110164452021-07-29 14:57:3749 days 3 hrs ago0x42d73a757e63a18a70c8a86564e405deca81967cOUT 0xe0e92035077c39594793e61802a350347c320cf20 BNB0.0004443
0x05944ada46f549004db4dace11b3834c8a66f5201350c802b152ab2e808db93eApprove110163962021-07-29 14:55:1049 days 3 hrs ago0x42d73a757e63a18a70c8a86564e405deca81967cOUT 0x78867bbeef44f2326bf8ddd1941a4439382ef2a70 BNB0.00044509
0x2646aa9434053e86b8f338346a4d52448a54a3854c07509c301c88bb9ec7df11Swap Exact ETH F...110163202021-07-29 14:51:2249 days 3 hrs ago0x42d73a757e63a18a70c8a86564e405deca81967cOUT 0x9ac64cc6e4415144c455bd8e4837fea55603e5c30.25 BNB0.00135269
0x5fa8f4c89ec70484959b48ec494712f06015096d840d3510554acceb35c6bde7Transfer110162812021-07-29 14:49:2549 days 3 hrs ago0xaa25aa7a19f9c426e07dee59b12f944f4d9f1dd3 IN 0x42d73a757e63a18a70c8a86564e405deca81967c1 BNB0.000378
[ Download CSV Export 
Latest 1 internal transaction
Parent Txn Hash Block From To Value
0xc489f9c7194a43495ea131932fee7949387dce27e35460c892942711b32711b8110185642021-07-29 16:43:3449 days 1 hr ago 0x9ac64cc6e4415144c455bd8e4837fea55603e5c30x42d73a757e63a18a70c8a86564e405deca81967c1 wei
[ Download CSV Export 
Loading

Contract Name:
0 BNB

Compiler Version
0

Optimization Enabled:
0 BNB

Other Settings:
-NA-
Block Transaction Gas Used Reward
Age Block Fee Address BC Fee Address Voting Power Jailed Incoming
Block Uncle Number Difficulty Gas Used Reward
Loading